sensor_id;sensor_type;location;lat;lon;timestamp;P1;durP1;ratioP1;P2;durP2;ratioP2
26062;SDS011;13837;48.562;12.108;2023-03-24T00:00:08;8.35;;;6.43;;
26062;SDS011;13837;48.562;12.108;2023-03-24T00:02:38;7.35;;;6.45;;
26062;SDS011;13837;48.562;12.108;2023-03-24T00:05:10;6.57;;;5.90;;
26062;SDS011;13837;48.562;12.108;2023-03-24T00:07:36;9.25;;;6.13;;
26062;SDS011;13837;48.562;12.108;2023-03-24T00:10:03;9.27;;;6.80;;
26062;SDS011;13837;48.562;12.108;2023-03-24T00:12:30;6.90;;;5.95;;
26062;SDS011;13837;48.562;12.108;2023-03-24T00:14:57;6.75;;;5.63;;
26062;SDS011;13837;48.562;12.108;2023-03-24T00:17:26;8.40;;;5.97;;
26062;SDS011;13837;48.562;12.108;2023-03-24T00:19:53;6.40;;;5.50;;
26062;SDS011;13837;48.562;12.108;2023-03-24T00:22:20;7.55;;;5.50;;
26062;SDS011;13837;48.562;12.108;2023-03-24T00:24:46;5.88;;;5.28;;
26062;SDS011;13837;48.562;12.108;2023-03-24T00:27:13;7.50;;;5.25;;
26062;SDS011;13837;48.562;12.108;2023-03-24T00:29:41;6.35;;;5.75;;
26062;SDS011;13837;48.562;12.108;2023-03-24T00:32:08;6.20;;;5.45;;
26062;SDS011;13837;48.562;12.108;2023-03-24T00:34:34;6.50;;;5.30;;
26062;SDS011;13837;48.562;12.108;2023-03-24T00:37:03;5.63;;;5.13;;
26062;SDS011;13837;48.562;12.108;2023-03-24T00:39:30;6.80;;;5.63;;
26062;SDS011;13837;48.562;12.108;2023-03-24T00:41:57;6.68;;;5.07;;
26062;SDS011;13837;48.562;12.108;2023-03-24T00:44:23;6.78;;;5.13;;
26062;SDS011;13837;48.562;12.108;2023-03-24T00:46:50;5.20;;;4.70;;
26062;SDS011;13837;48.562;12.108;2023-03-24T00:49:23;5.80;;;5.20;;
26062;SDS011;13837;48.562;12.108;2023-03-24T00:54:36;5.93;;;5.40;;
26062;SDS011;13837;48.562;12.108;2023-03-24T00:57:02;7.50;;;5.43;;
26062;SDS011;13837;48.562;12.108;2023-03-24T00:59:29;5.38;;;4.88;;
26062;SDS011;13837;48.562;12.108;2023-03-24T01:01:55;7.10;;;5.55;;
26062;SDS011;13837;48.562;12.108;2023-03-24T01:04:22;7.45;;;5.35;;
26062;SDS011;13837;48.562;12.108;2023-03-24T01:06:50;5.82;;;5.22;;
26062;SDS011;13837;48.562;12.108;2023-03-24T01:09:18;6.28;;;5.35;;
26062;SDS011;13837;48.562;12.108;2023-03-24T01:11:47;6.28;;;5.45;;
26062;SDS011;13837;48.562;12.108;2023-03-24T01:14:13;6.45;;;5.15;;
26062;SDS011;13837;48.562;12.108;2023-03-24T01:16:40;6.25;;;5.40;;
26062;SDS011;13837;48.562;12.108;2023-03-24T01:19:07;7.45;;;6.28;;
26062;SDS011;13837;48.562;12.108;2023-03-24T01:21:34;6.40;;;5.63;;
26062;SDS011;13837;48.562;12.108;2023-03-24T01:24:01;6.70;;;5.63;;
26062;SDS011;13837;48.562;12.108;2023-03-24T01:26:29;6.28;;;5.45;;
26062;SDS011;13837;48.562;12.108;2023-03-24T01:28:55;7.22;;;5.93;;
26062;SDS011;13837;48.562;12.108;2023-03-24T01:31:21;6.72;;;5.97;;
26062;SDS011;13837;48.562;12.108;2023-03-24T01:33:47;6.78;;;6.18;;
26062;SDS011;13837;48.562;12.108;2023-03-24T01:36:13;9.38;;;5.82;;
26062;SDS011;13837;48.562;12.108;2023-03-24T01:38:39;7.25;;;6.53;;
26062;SDS011;13837;48.562;12.108;2023-03-24T01:41:05;10.40;;;6.65;;
26062;SDS011;13837;48.562;12.108;2023-03-24T01:43:32;6.75;;;6.05;;
26062;SDS011;13837;48.562;12.108;2023-03-24T01:46:07;6.82;;;6.10;;
26062;SDS011;13837;48.562;12.108;2023-03-24T01:48:45;7.40;;;6.07;;
26062;SDS011;13837;48.562;12.108;2023-03-24T01:51:33;6.80;;;6.07;;
26062;SDS011;13837;48.562;12.108;2023-03-24T01:54:02;7.03;;;6.32;;
26062;SDS011;13837;48.562;12.108;2023-03-24T01:58:56;7.97;;;5.88;;
26062;SDS011;13837;48.562;12.108;2023-03-24T02:01:56;7.13;;;6.43;;
26062;SDS011;13837;48.562;12.108;2023-03-24T02:04:53;9.52;;;6.40;;
26062;SDS011;13837;48.562;12.108;2023-03-24T02:07:33;7.50;;;6.20;;
26062;SDS011;13837;48.562;12.108;2023-03-24T02:10:02;6.88;;;6.28;;
26062;SDS011;13837;48.562;12.108;2023-03-24T02:12:29;7.25;;;6.40;;
26062;SDS011;13837;48.562;12.108;2023-03-24T02:14:56;11.45;;;6.55;;
26062;SDS011;13837;48.562;12.108;2023-03-24T02:29:57;7.75;;;6.38;;
26062;SDS011;13837;48.562;12.108;2023-03-24T02:35:30;10.63;;;6.30;;
26062;SDS011;13837;48.562;12.108;2023-03-24T02:38:09;8.48;;;6.88;;
26062;SDS011;13837;48.562;12.108;2023-03-24T02:43:18;7.75;;;6.97;;
26062;SDS011;13837;48.562;12.108;2023-03-24T02:53:28;7.72;;;6.93;;
26062;SDS011;13837;48.562;12.108;2023-03-24T02:56:28;10.52;;;7.28;;
26062;SDS011;13837;48.562;12.108;2023-03-24T02:59:08;7.45;;;6.75;;
26062;SDS011;13837;48.562;12.108;2023-03-24T03:01:46;8.50;;;6.75;;
26062;SDS011;13837;48.562;12.108;2023-03-24T03:04:38;8.68;;;6.97;;
26062;SDS011;13837;48.562;12.108;2023-03-24T03:07:06;7.90;;;7.10;;
26062;SDS011;13837;48.562;12.108;2023-03-24T03:09:35;9.63;;;7.15;;
26062;SDS011;13837;48.562;12.108;2023-03-24T03:12:02;8.73;;;7.20;;
26062;SDS011;13837;48.562;12.108;2023-03-24T03:14:40;8.63;;;7.13;;
26062;SDS011;13837;48.562;12.108;2023-03-24T03:17:11;8.70;;;7.40;;
26062;SDS011;13837;48.562;12.108;2023-03-24T03:19:40;10.00;;;7.45;;
26062;SDS011;13837;48.562;12.108;2023-03-24T03:22:10;10.13;;;7.60;;
26062;SDS011;13837;48.562;12.108;2023-03-24T03:24:39;9.75;;;7.95;;
26062;SDS011;13837;48.562;12.108;2023-03-24T03:27:07;10.88;;;7.45;;
26062;SDS011;13837;48.562;12.108;2023-03-24T03:29:39;8.10;;;7.30;;
26062;SDS011;13837;48.562;12.108;2023-03-24T03:32:06;9.07;;;7.78;;
26062;SDS011;13837;48.562;12.108;2023-03-24T03:34:44;11.05;;;7.80;;
26062;SDS011;13837;48.562;12.108;2023-03-24T03:39:48;8.85;;;7.80;;
26062;SDS011;13837;48.562;12.108;2023-03-24T03:42:16;8.60;;;7.70;;
26062;SDS011;13837;48.562;12.108;2023-03-24T03:44:43;10.55;;;7.72;;
26062;SDS011;13837;48.562;12.108;2023-03-24T03:47:10;9.45;;;7.65;;
26062;SDS011;13837;48.562;12.108;2023-03-24T03:49:40;8.85;;;7.22;;
26062;SDS011;13837;48.562;12.108;2023-03-24T03:52:07;8.20;;;7.40;;
26062;SDS011;13837;48.562;12.108;2023-03-24T03:54:33;9.27;;;7.93;;
26062;SDS011;13837;48.562;12.108;2023-03-24T03:57:00;11.18;;;7.45;;
26062;SDS011;13837;48.562;12.108;2023-03-24T03:59:36;10.23;;;7.93;;
26062;SDS011;13837;48.562;12.108;2023-03-24T04:04:45;11.43;;;8.00;;
26062;SDS011;13837;48.562;12.108;2023-03-24T04:07:46;8.82;;;7.93;;
26062;SDS011;13837;48.562;12.108;2023-03-24T04:13:38;9.77;;;8.27;;
26062;SDS011;13837;48.562;12.108;2023-03-24T04:16:40;9.05;;;8.13;;
26062;SDS011;13837;48.562;12.108;2023-03-24T04:19:30;10.77;;;8.30;;
26062;SDS011;13837;48.562;12.108;2023-03-24T04:24:56;8.90;;;8.00;;
26062;SDS011;13837;48.562;12.108;2023-03-24T04:32:48;8.70;;;7.80;;
26062;SDS011;13837;48.562;12.108;2023-03-24T04:35:41;8.05;;;7.25;;
26062;SDS011;13837;48.562;12.108;2023-03-24T04:38:13;9.35;;;7.78;;
26062;SDS011;13837;48.562;12.108;2023-03-24T04:40:48;11.35;;;8.10;;
26062;SDS011;13837;48.562;12.108;2023-03-24T04:43:16;7.88;;;7.07;;
26062;SDS011;13837;48.562;12.108;2023-03-24T04:45:43;9.43;;;7.47;;
26062;SDS011;13837;48.562;12.108;2023-03-24T04:48:33;8.18;;;7.32;;
26062;SDS011;13837;48.562;12.108;2023-03-24T04:51:06;7.78;;;7.07;;
26062;SDS011;13837;48.562;12.108;2023-03-24T04:53:54;9.57;;;8.10;;
26062;SDS011;13837;48.562;12.108;2023-03-24T04:59:05;39.05;;;17.95;;
26062;SDS011;13837;48.562;12.108;2023-03-24T05:01:32;35.38;;;16.52;;
26062;SDS011;13837;48.562;12.108;2023-03-24T05:04:21;19.70;;;11.45;;
26062;SDS011;13837;48.562;12.108;2023-03-24T05:06:47;16.73;;;9.70;;
26062;SDS011;13837;48.562;12.108;2023-03-24T05:09:17;10.27;;;7.80;;
26062;SDS011;13837;48.562;12.108;2023-03-24T05:11:45;9.43;;;7.93;;
26062;SDS011;13837;48.562;12.108;2023-03-24T05:14:12;21.50;;;12.88;;
26062;SDS011;13837;48.562;12.108;2023-03-24T05:16:38;25.83;;;12.98;;
26062;SDS011;13837;48.562;12.108;2023-03-24T05:19:05;18.38;;;11.00;;
26062;SDS011;13837;48.562;12.108;2023-03-24T05:21:32;17.50;;;11.45;;
26062;SDS011;13837;48.562;12.108;2023-03-24T05:24:01;17.90;;;10.98;;
26062;SDS011;13837;48.562;12.108;2023-03-24T05:26:27;12.23;;;9.63;;
26062;SDS011;13837;48.562;12.108;2023-03-24T05:29:14;9.38;;;8.48;;
26062;SDS011;13837;48.562;12.108;2023-03-24T05:31:40;11.50;;;8.10;;
26062;SDS011;13837;48.562;12.108;2023-03-24T05:34:15;9.68;;;8.52;;
26062;SDS011;13837;48.562;12.108;2023-03-24T05:36:56;13.40;;;10.07;;
26062;SDS011;13837;48.562;12.108;2023-03-24T05:39:22;18.88;;;12.65;;
26062;SDS011;13837;48.562;12.108;2023-03-24T05:42:05;12.45;;;9.27;;
26062;SDS011;13837;48.562;12.108;2023-03-24T05:44:31;10.88;;;9.43;;
26062;SDS011;13837;48.562;12.108;2023-03-24T05:47:06;14.52;;;10.07;;
26062;SDS011;13837;48.562;12.108;2023-03-24T05:49:32;13.27;;;9.40;;
26062;SDS011;13837;48.562;12.108;2023-03-24T05:51:59;10.38;;;9.27;;
26062;SDS011;13837;48.562;12.108;2023-03-24T05:54:25;9.85;;;8.70;;
26062;SDS011;13837;48.562;12.108;2023-03-24T05:56:59;9.95;;;8.95;;
26062;SDS011;13837;48.562;12.108;2023-03-24T05:59:32;9.75;;;8.65;;
26062;SDS011;13837;48.562;12.108;2023-03-24T06:02:08;9.70;;;8.70;;
26062;SDS011;13837;48.562;12.108;2023-03-24T06:05:01;8.77;;;7.97;;
26062;SDS011;13837;48.562;12.108;2023-03-24T06:07:28;8.63;;;7.47;;
26062;SDS011;13837;48.562;12.108;2023-03-24T06:09:56;15.30;;;8.75;;
26062;SDS011;13837;48.562;12.108;2023-03-24T06:12:22;10.27;;;8.27;;
26062;SDS011;13837;48.562;12.108;2023-03-24T06:14:53;12.68;;;10.13;;
26062;SDS011;13837;48.562;12.108;2023-03-24T06:17:20;11.25;;;9.52;;
26062;SDS011;13837;48.562;12.108;2023-03-24T06:19:50;10.25;;;8.95;;
26062;SDS011;13837;48.562;12.108;2023-03-24T06:22:46;8.63;;;7.70;;
26062;SDS011;13837;48.562;12.108;2023-03-24T06:27:49;11.13;;;8.18;;
26062;SDS011;13837;48.562;12.108;2023-03-24T06:30:20;9.40;;;8.38;;
26062;SDS011;13837;48.562;12.108;2023-03-24T06:32:47;9.88;;;7.80;;
26062;SDS011;13837;48.562;12.108;2023-03-24T06:35:15;9.75;;;8.07;;
26062;SDS011;13837;48.562;12.108;2023-03-24T06:37:49;9.60;;;8.38;;
26062;SDS011;13837;48.562;12.108;2023-03-24T06:40:15;9.35;;;8.30;;
26062;SDS011;13837;48.562;12.108;2023-03-24T06:42:49;10.98;;;8.70;;
26062;SDS011;13837;48.562;12.108;2023-03-24T06:45:16;10.30;;;9.02;;
26062;SDS011;13837;48.562;12.108;2023-03-24T06:47:44;11.15;;;9.70;;
26062;SDS011;13837;48.562;12.108;2023-03-24T06:50:10;12.90;;;8.98;;
26062;SDS011;13837;48.562;12.108;2023-03-24T06:52:37;10.57;;;8.95;;
26062;SDS011;13837;48.562;12.108;2023-03-24T06:55:03;11.10;;;9.27;;
26062;SDS011;13837;48.562;12.108;2023-03-24T06:57:30;13.38;;;9.43;;
26062;SDS011;13837;48.562;12.108;2023-03-24T07:00:14;12.25;;;9.55;;
26062;SDS011;13837;48.562;12.108;2023-03-24T07:02:53;11.95;;;9.45;;
26062;SDS011;13837;48.562;12.108;2023-03-24T07:05:20;12.32;;;9.95;;
26062;SDS011;13837;48.562;12.108;2023-03-24T07:07:47;9.88;;;8.73;;
26062;SDS011;13837;48.562;12.108;2023-03-24T07:10:29;9.75;;;8.75;;
26062;SDS011;13837;48.562;12.108;2023-03-24T07:12:55;10.38;;;9.18;;
26062;SDS011;13837;48.562;12.108;2023-03-24T07:15:22;10.23;;;9.05;;
26062;SDS011;13837;48.562;12.108;2023-03-24T07:17:48;12.93;;;9.10;;
26062;SDS011;13837;48.562;12.108;2023-03-24T07:20:36;12.02;;;9.30;;
26062;SDS011;13837;48.562;12.108;2023-03-24T07:23:11;9.95;;;8.45;;
26062;SDS011;13837;48.562;12.108;2023-03-24T07:25:40;9.93;;;8.93;;
26062;SDS011;13837;48.562;12.108;2023-03-24T07:28:30;10.48;;;9.02;;
26062;SDS011;13837;48.562;12.108;2023-03-24T07:30:56;10.13;;;8.27;;
26062;SDS011;13837;48.562;12.108;2023-03-24T07:33:23;14.48;;;9.05;;
26062;SDS011;13837;48.562;12.108;2023-03-24T07:35:54;12.43;;;9.15;;
26062;SDS011;13837;48.562;12.108;2023-03-24T07:38:21;10.85;;;9.75;;
26062;SDS011;13837;48.562;12.108;2023-03-24T07:40:50;12.40;;;10.48;;
26062;SDS011;13837;48.562;12.108;2023-03-24T07:43:16;11.88;;;10.30;;
26062;SDS011;13837;48.562;12.108;2023-03-24T07:46:04;12.10;;;9.77;;
26062;SDS011;13837;48.562;12.108;2023-03-24T07:48:31;12.95;;;10.75;;
26062;SDS011;13837;48.562;12.108;2023-03-24T07:50:58;16.42;;;11.52;;
26062;SDS011;13837;48.562;12.108;2023-03-24T07:53:43;11.63;;;10.40;;
26062;SDS011;13837;48.562;12.108;2023-03-24T07:56:10;13.55;;;10.20;;
26062;SDS011;13837;48.562;12.108;2023-03-24T07:58:46;15.68;;;10.75;;
26062;SDS011;13837;48.562;12.108;2023-03-24T08:01:22;14.38;;;10.55;;
26062;SDS011;13837;48.562;12.108;2023-03-24T08:03:50;11.18;;;10.05;;
26062;SDS011;13837;48.562;12.108;2023-03-24T08:06:49;11.65;;;10.48;;
26062;SDS011;13837;48.562;12.108;2023-03-24T08:09:16;14.07;;;10.95;;
26062;SDS011;13837;48.562;12.108;2023-03-24T08:11:43;14.30;;;11.00;;
26062;SDS011;13837;48.562;12.108;2023-03-24T08:14:08;11.40;;;10.30;;
26062;SDS011;13837;48.562;12.108;2023-03-24T08:16:35;13.35;;;10.40;;
26062;SDS011;13837;48.562;12.108;2023-03-24T08:19:03;12.35;;;10.48;;
26062;SDS011;13837;48.562;12.108;2023-03-24T08:21:29;12.57;;;9.90;;
26062;SDS011;13837;48.562;12.108;2023-03-24T08:23:55;14.82;;;10.60;;
26062;SDS011;13837;48.562;12.108;2023-03-24T08:26:21;12.27;;;10.40;;
26062;SDS011;13837;48.562;12.108;2023-03-24T08:28:50;12.82;;;10.80;;
26062;SDS011;13837;48.562;12.108;2023-03-24T08:31:16;14.35;;;11.07;;
26062;SDS011;13837;48.562;12.108;2023-03-24T08:33:42;15.57;;;10.95;;
26062;SDS011;13837;48.562;12.108;2023-03-24T08:36:09;15.38;;;10.70;;
26062;SDS011;13837;48.562;12.108;2023-03-24T08:38:35;14.20;;;12.20;;
26062;SDS011;13837;48.562;12.108;2023-03-24T08:41:03;12.30;;;10.48;;
26062;SDS011;13837;48.562;12.108;2023-03-24T08:43:31;12.20;;;10.93;;
26062;SDS011;13837;48.562;12.108;2023-03-24T08:45:58;13.82;;;11.32;;
26062;SDS011;13837;48.562;12.108;2023-03-24T08:48:24;17.33;;;11.95;;
26062;SDS011;13837;48.562;12.108;2023-03-24T08:50:50;12.05;;;10.88;;
26062;SDS011;13837;48.562;12.108;2023-03-24T08:53:16;13.43;;;10.60;;
26062;SDS011;13837;48.562;12.108;2023-03-24T08:55:42;18.30;;;13.88;;
26062;SDS011;13837;48.562;12.108;2023-03-24T08:58:16;18.80;;;14.07;;
26062;SDS011;13837;48.562;12.108;2023-03-24T09:00:43;15.75;;;12.88;;
26062;SDS011;13837;48.562;12.108;2023-03-24T09:03:13;15.73;;;13.82;;
26062;SDS011;13837;48.562;12.108;2023-03-24T09:05:42;16.17;;;13.27;;
26062;SDS011;13837;48.562;12.108;2023-03-24T09:08:08;15.07;;;12.13;;
26062;SDS011;13837;48.562;12.108;2023-03-24T09:10:34;15.02;;;11.80;;
26062;SDS011;13837;48.562;12.108;2023-03-24T09:13:00;16.05;;;13.45;;
26062;SDS011;13837;48.562;12.108;2023-03-24T09:15:26;18.15;;;13.95;;
26062;SDS011;13837;48.562;12.108;2023-03-24T09:17:52;18.00;;;14.20;;
26062;SDS011;13837;48.562;12.108;2023-03-24T09:20:18;17.65;;;14.23;;
26062;SDS011;13837;48.562;12.108;2023-03-24T09:22:45;17.15;;;13.52;;
26062;SDS011;13837;48.562;12.108;2023-03-24T09:25:12;17.77;;;13.32;;
26062;SDS011;13837;48.562;12.108;2023-03-24T09:27:40;15.45;;;13.65;;
26062;SDS011;13837;48.562;12.108;2023-03-24T09:30:06;16.10;;;12.30;;
26062;SDS011;13837;48.562;12.108;2023-03-24T09:32:33;15.45;;;12.25;;
26062;SDS011;13837;48.562;12.108;2023-03-24T09:34:59;16.90;;;12.15;;
26062;SDS011;13837;48.562;12.108;2023-03-24T09:37:32;16.00;;;12.40;;
26062;SDS011;13837;48.562;12.108;2023-03-24T09:39:58;15.68;;;13.35;;
26062;SDS011;13837;48.562;12.108;2023-03-24T09:42:26;14.77;;;13.05;;
26062;SDS011;13837;48.562;12.108;2023-03-24T09:44:54;14.13;;;11.90;;
26062;SDS011;13837;48.562;12.108;2023-03-24T09:47:29;14.45;;;12.50;;
26062;SDS011;13837;48.562;12.108;2023-03-24T09:49:57;15.40;;;12.98;;
26062;SDS011;13837;48.562;12.108;2023-03-24T09:52:35;14.45;;;12.82;;
26062;SDS011;13837;48.562;12.108;2023-03-24T09:55:03;15.57;;;12.40;;
26062;SDS011;13837;48.562;12.108;2023-03-24T09:59:55;15.07;;;11.35;;
26062;SDS011;13837;48.562;12.108;2023-03-24T10:02:22;13.73;;;11.07;;
26062;SDS011;13837;48.562;12.108;2023-03-24T10:04:48;12.45;;;11.10;;
26062;SDS011;13837;48.562;12.108;2023-03-24T10:07:19;12.38;;;11.07;;
26062;SDS011;13837;48.562;12.108;2023-03-24T10:09:49;17.73;;;11.43;;
26062;SDS011;13837;48.562;12.108;2023-03-24T10:19:46;13.98;;;10.60;;
26062;SDS011;13837;48.562;12.108;2023-03-24T10:25:10;9.93;;;8.93;;
26062;SDS011;13837;48.562;12.108;2023-03-24T10:27:53;13.27;;;9.55;;
26062;SDS011;13837;48.562;12.108;2023-03-24T10:30:23;9.77;;;8.75;;
26062;SDS011;13837;48.562;12.108;2023-03-24T10:32:50;13.57;;;9.13;;
26062;SDS011;13837;48.562;12.108;2023-03-24T10:35:23;9.73;;;8.23;;
26062;SDS011;13837;48.562;12.108;2023-03-24T10:37:50;10.65;;;9.50;;
26062;SDS011;13837;48.562;12.108;2023-03-24T10:40:20;11.05;;;9.63;;
26062;SDS011;13837;48.562;12.108;2023-03-24T10:42:48;12.55;;;9.77;;
26062;SDS011;13837;48.562;12.108;2023-03-24T10:45:33;10.55;;;8.70;;
26062;SDS011;13837;48.562;12.108;2023-03-24T10:48:01;12.18;;;8.98;;
26062;SDS011;13837;48.562;12.108;2023-03-24T10:50:31;12.13;;;10.25;;
26062;SDS011;13837;48.562;12.108;2023-03-24T10:52:59;10.93;;;9.65;;
26062;SDS011;13837;48.562;12.108;2023-03-24T10:55:29;9.60;;;8.63;;
26062;SDS011;13837;48.562;12.108;2023-03-24T10:57:59;10.48;;;8.80;;
26062;SDS011;13837;48.562;12.108;2023-03-24T11:03:03;10.52;;;9.13;;
26062;SDS011;13837;48.562;12.108;2023-03-24T11:05:34;9.25;;;8.30;;
26062;SDS011;13837;48.562;12.108;2023-03-24T11:08:11;8.77;;;7.88;;
26062;SDS011;13837;48.562;12.108;2023-03-24T11:10:39;11.13;;;8.10;;
26062;SDS011;13837;48.562;12.108;2023-03-24T11:13:13;10.50;;;8.60;;
26062;SDS011;13837;48.562;12.108;2023-03-24T11:15:52;8.60;;;7.30;;
26062;SDS011;13837;48.562;12.108;2023-03-24T11:18:19;8.70;;;6.22;;
26062;SDS011;13837;48.562;12.108;2023-03-24T11:20:55;7.28;;;6.57;;
26062;SDS011;13837;48.562;12.108;2023-03-24T11:23:41;8.18;;;6.78;;
26062;SDS011;13837;48.562;12.108;2023-03-24T11:26:16;7.10;;;6.40;;
26062;SDS011;13837;48.562;12.108;2023-03-24T11:28:47;9.23;;;8.23;;
26062;SDS011;13837;48.562;12.108;2023-03-24T11:31:26;7.25;;;6.53;;
26062;SDS011;13837;48.562;12.108;2023-03-24T11:38:59;10.55;;;7.95;;
26062;SDS011;13837;48.562;12.108;2023-03-24T11:41:26;7.47;;;6.80;;
26062;SDS011;13837;48.562;12.108;2023-03-24T11:46:57;9.05;;;6.80;;
26062;SDS011;13837;48.562;12.108;2023-03-24T11:49:25;7.10;;;6.45;;
26062;SDS011;13837;48.562;12.108;2023-03-24T11:51:52;7.47;;;6.80;;
26062;SDS011;13837;48.562;12.108;2023-03-24T11:54:20;8.13;;;6.65;;
26062;SDS011;13837;48.562;12.108;2023-03-24T11:56:48;7.22;;;6.53;;
26062;SDS011;13837;48.562;12.108;2023-03-24T11:59:27;8.73;;;6.68;;
26062;SDS011;13837;48.562;12.108;2023-03-24T12:12:31;6.63;;;5.88;;
26062;SDS011;13837;48.562;12.108;2023-03-24T12:15:06;6.95;;;6.28;;
26062;SDS011;13837;48.562;12.108;2023-03-24T12:17:39;6.65;;;5.38;;
26062;SDS011;13837;48.562;12.108;2023-03-24T12:25:25;5.18;;;4.78;;
26062;SDS011;13837;48.562;12.108;2023-03-24T12:30:55;4.82;;;4.43;;
26062;SDS011;13837;48.562;12.108;2023-03-24T12:36:18;4.97;;;4.40;;
26062;SDS011;13837;48.562;12.108;2023-03-24T12:38:53;5.35;;;4.75;;
26062;SDS011;13837;48.562;12.108;2023-03-24T12:44:05;5.00;;;3.45;;
26062;SDS011;13837;48.562;12.108;2023-03-24T12:54:48;5.70;;;4.90;;
26062;SDS011;13837;48.562;12.108;2023-03-24T12:57:17;4.75;;;3.58;;
26062;SDS011;13837;48.562;12.108;2023-03-24T13:02:34;3.85;;;3.40;;
26062;SDS011;13837;48.562;12.108;2023-03-24T13:05:03;5.55;;;4.68;;
26062;SDS011;13837;48.562;12.108;2023-03-24T13:07:34;4.45;;;4.05;;
26062;SDS011;13837;48.562;12.108;2023-03-24T13:10:11;4.43;;;3.38;;
26062;SDS011;13837;48.562;12.108;2023-03-24T13:20:23;4.72;;;3.17;;
26062;SDS011;13837;48.562;12.108;2023-03-24T13:22:51;3.88;;;2.95;;
26062;SDS011;13837;48.562;12.108;2023-03-24T13:26:04;3.75;;;3.45;;
26062;SDS011;13837;48.562;12.108;2023-03-24T13:28:06;4.47;;;3.45;;
26062;SDS011;13837;48.562;12.108;2023-03-24T13:30:35;3.90;;;2.92;;
26062;SDS011;13837;48.562;12.108;2023-03-24T13:33:15;3.38;;;3.08;;
26062;SDS011;13837;48.562;12.108;2023-03-24T13:38:15;3.00;;;2.75;;
26062;SDS011;13837;48.562;12.108;2023-03-24T13:40:44;3.97;;;3.58;;
26062;SDS011;13837;48.562;12.108;2023-03-24T13:43:12;3.97;;;2.90;;
26062;SDS011;13837;48.562;12.108;2023-03-24T13:45:43;4.80;;;3.42;;
26062;SDS011;13837;48.562;12.108;2023-03-24T13:48:16;3.42;;;3.00;;
26062;SDS011;13837;48.562;12.108;2023-03-24T13:50:57;3.63;;;3.33;;
26062;SDS011;13837;48.562;12.108;2023-03-24T13:55:56;3.40;;;3.10;;
26062;SDS011;13837;48.562;12.108;2023-03-24T13:58:23;2.90;;;2.58;;
26062;SDS011;13837;48.562;12.108;2023-03-24T14:01:05;3.00;;;2.53;;
26062;SDS011;13837;48.562;12.108;2023-03-24T14:03:42;2.63;;;1.65;;
26062;SDS011;13837;48.562;12.108;2023-03-24T14:06:09;2.30;;;1.70;;
26062;SDS011;13837;48.562;12.108;2023-03-24T14:08:39;1.73;;;1.63;;
26062;SDS011;13837;48.562;12.108;2023-03-24T14:11:39;2.05;;;1.85;;
26062;SDS011;13837;48.562;12.108;2023-03-24T14:16:48;1.70;;;1.60;;
26062;SDS011;13837;48.562;12.108;2023-03-24T14:19:17;1.42;;;1.35;;
26062;SDS011;13837;48.562;12.108;2023-03-24T14:21:49;1.52;;;1.42;;
26062;SDS011;13837;48.562;12.108;2023-03-24T14:24:22;1.80;;;1.70;;
26062;SDS011;13837;48.562;12.108;2023-03-24T14:26:49;1.70;;;1.60;;
26062;SDS011;13837;48.562;12.108;2023-03-24T14:29:32;1.92;;;1.58;;
26062;SDS011;13837;48.562;12.108;2023-03-24T14:32:01;1.63;;;1.52;;
26062;SDS011;13837;48.562;12.108;2023-03-24T14:34:28;1.88;;;1.55;;
26062;SDS011;13837;48.562;12.108;2023-03-24T14:37:01;1.73;;;1.70;;
26062;SDS011;13837;48.562;12.108;2023-03-24T14:39:33;1.85;;;1.75;;
26062;SDS011;13837;48.562;12.108;2023-03-24T14:42:00;1.95;;;1.80;;
26062;SDS011;13837;48.562;12.108;2023-03-24T14:47:21;1.73;;;1.63;;
26062;SDS011;13837;48.562;12.108;2023-03-24T14:49:49;1.80;;;1.70;;
26062;SDS011;13837;48.562;12.108;2023-03-24T14:54:58;1.80;;;1.70;;
26062;SDS011;13837;48.562;12.108;2023-03-24T14:57:35;1.60;;;1.50;;
26062;SDS011;13837;48.562;12.108;2023-03-24T15:00:07;1.52;;;1.52;;
26062;SDS011;13837;48.562;12.108;2023-03-24T15:02:40;2.15;;;1.95;;
26062;SDS011;13837;48.562;12.108;2023-03-24T15:07:45;5.05;;;3.83;;
26062;SDS011;13837;48.562;12.108;2023-03-24T15:10:14;5.55;;;3.78;;
26062;SDS011;13837;48.562;12.108;2023-03-24T15:12:47;2.47;;;2.28;;
26062;SDS011;13837;48.562;12.108;2023-03-24T15:15:15;2.30;;;2.10;;
26062;SDS011;13837;48.562;12.108;2023-03-24T15:17:43;2.00;;;1.90;;
26062;SDS011;13837;48.562;12.108;2023-03-24T15:23:11;3.22;;;2.60;;
26062;SDS011;13837;48.562;12.108;2023-03-24T15:25:41;2.35;;;2.25;;
26062;SDS011;13837;48.562;12.108;2023-03-24T15:28:14;2.40;;;2.30;;
26062;SDS011;13837;48.562;12.108;2023-03-24T15:30:42;2.80;;;2.60;;
26062;SDS011;13837;48.562;12.108;2023-03-24T15:33:09;2.70;;;2.50;;
26062;SDS011;13837;48.562;12.108;2023-03-24T15:35:38;2.10;;;2.00;;
26062;SDS011;13837;48.562;12.108;2023-03-24T15:38:05;2.67;;;2.42;;
26062;SDS011;13837;48.562;12.108;2023-03-24T15:40:32;2.78;;;2.53;;
26062;SDS011;13837;48.562;12.108;2023-03-24T15:43:00;2.63;;;2.25;;
26062;SDS011;13837;48.562;12.108;2023-03-24T15:45:34;2.75;;;2.50;;
26062;SDS011;13837;48.562;12.108;2023-03-24T15:48:05;2.65;;;2.00;;
26062;SDS011;13837;48.562;12.108;2023-03-24T15:53:02;3.53;;;3.22;;
26062;SDS011;13837;48.562;12.108;2023-03-24T15:55:30;2.42;;;2.22;;
26062;SDS011;13837;48.562;12.108;2023-03-24T15:57:57;2.08;;;1.80;;
26062;SDS011;13837;48.562;12.108;2023-03-24T16:00:25;1.90;;;1.90;;
26062;SDS011;13837;48.562;12.108;2023-03-24T16:02:52;2.28;;;2.08;;
26062;SDS011;13837;48.562;12.108;2023-03-24T16:05:25;2.15;;;2.05;;
26062;SDS011;13837;48.562;12.108;2023-03-24T16:07:59;3.63;;;1.92;;
26062;SDS011;13837;48.562;12.108;2023-03-24T16:10:27;2.10;;;2.00;;
26062;SDS011;13837;48.562;12.108;2023-03-24T16:12:56;2.40;;;2.30;;
26062;SDS011;13837;48.562;12.108;2023-03-24T16:15:23;2.10;;;2.00;;
26062;SDS011;13837;48.562;12.108;2023-03-24T16:17:49;2.65;;;2.45;;
26062;SDS011;13837;48.562;12.108;2023-03-24T16:20:16;8.75;;;7.80;;
26062;SDS011;13837;48.562;12.108;2023-03-24T16:22:44;12.20;;;7.95;;
26062;SDS011;13837;48.562;12.108;2023-03-24T16:25:11;2.92;;;2.50;;
26062;SDS011;13837;48.562;12.108;2023-03-24T16:27:37;2.17;;;2.08;;
26062;SDS011;13837;48.562;12.108;2023-03-24T16:30:17;4.13;;;2.55;;
26062;SDS011;13837;48.562;12.108;2023-03-24T16:32:44;2.15;;;2.05;;
26062;SDS011;13837;48.562;12.108;2023-03-24T16:35:10;2.00;;;1.90;;
26062;SDS011;13837;48.562;12.108;2023-03-24T16:37:36;2.45;;;2.30;;
26062;SDS011;13837;48.562;12.108;2023-03-24T16:40:05;2.30;;;2.20;;
26062;SDS011;13837;48.562;12.108;2023-03-24T16:42:36;2.60;;;2.30;;
26062;SDS011;13837;48.562;12.108;2023-03-24T16:45:02;2.70;;;2.50;;
26062;SDS011;13837;48.562;12.108;2023-03-24T16:47:28;2.33;;;2.22;;
26062;SDS011;13837;48.562;12.108;2023-03-24T16:49:55;2.67;;;2.47;;
26062;SDS011;13837;48.562;12.108;2023-03-24T16:52:21;3.03;;;2.90;;
26062;SDS011;13837;48.562;12.108;2023-03-24T16:54:47;3.60;;;3.30;;
26062;SDS011;13837;48.562;12.108;2023-03-24T16:57:14;3.42;;;3.17;;
26062;SDS011;13837;48.562;12.108;2023-03-24T16:59:40;4.30;;;3.90;;
26062;SDS011;13837;48.562;12.108;2023-03-24T17:02:07;3.58;;;3.28;;
26062;SDS011;13837;48.562;12.108;2023-03-24T17:04:35;3.47;;;3.20;;
26062;SDS011;13837;48.562;12.108;2023-03-24T17:07:01;4.40;;;4.00;;